createdAt,value
2022-10-28T00:02:20.616Z,84.74
2022-10-28T00:04:52.363Z,85.06
2022-10-28T00:07:24.037Z,84.83
2022-10-28T00:09:55.917Z,84.59
2022-10-28T00:12:27.568Z,84.19
2022-10-28T00:14:59.303Z,84.17
2022-10-28T00:17:31.026Z,83.97
2022-10-28T00:20:02.979Z,83.97
2022-10-28T00:22:34.695Z,83.97
2022-10-28T00:25:07.832Z,84.33
2022-10-28T00:27:39.704Z,84.41
2022-10-28T00:30:12.954Z,84.46
2022-10-28T00:32:44.604Z,84.50
2022-10-28T00:35:16.693Z,84.93
2022-10-28T00:37:48.516Z,85.40
2022-10-28T00:40:20.178Z,86.03
2022-10-28T00:42:52.100Z,85.59
2022-10-28T00:45:24.108Z,85.96
2022-10-28T00:48:00.260Z,86.00
2022-10-28T00:50:48.788Z,86.01
2022-10-28T00:53:25.605Z,85.86
2022-10-28T00:55:58.736Z,85.86
2022-10-28T00:58:32.471Z,85.11
2022-10-28T01:01:04.545Z,84.86
2022-10-28T01:03:37.154Z,84.54
2022-10-28T01:06:09.719Z,84.45
2022-10-28T01:08:41.657Z,84.74
2022-10-28T01:11:31.956Z,85.08
2022-10-28T01:14:19.292Z,86.43
2022-10-28T01:17:09.225Z,87.72
2022-10-28T01:20:16.779Z,88.93
2022-10-28T01:22:54.865Z,89.30
2022-10-28T01:26:02.614Z,89.82
2022-10-28T01:29:04.138Z,89.94
2022-10-28T01:31:41.862Z,90.63
2022-10-28T01:34:25.294Z,90.62
2022-10-28T01:37:03.157Z,90.73
2022-10-28T01:39:45.276Z,90.72
2022-10-28T01:42:27.543Z,90.57
2022-10-28T01:45:10.102Z,90.69
2022-10-28T01:47:48.245Z,90.62
2022-10-28T01:50:22.895Z,90.37
2022-10-28T01:52:58.353Z,90.56
2022-10-28T01:55:35.329Z,90.42
2022-10-28T01:58:08.513Z,90.31
2022-10-28T02:00:41.105Z,90.14
2022-10-28T02:03:12.930Z,90.49
2022-10-28T02:05:47.237Z,90.28
2022-10-28T02:08:45.912Z,90.18
2022-10-28T02:11:32.137Z,90.14
2022-10-28T02:14:15.524Z,90.00
2022-10-28T02:16:52.871Z,89.97
2022-10-28T02:19:33.166Z,90.12
2022-10-28T02:22:16.685Z,90.00
2022-10-28T02:24:56.013Z,90.15
2022-10-28T02:27:35.613Z,90.15
2022-10-28T02:30:10.485Z,90.07
2022-10-28T02:32:46.357Z,90.15
2022-10-28T02:35:23.968Z,90.16
2022-10-28T02:37:59.791Z,89.93
2022-10-28T02:40:33.837Z,90.02
2022-10-28T02:43:09.017Z,89.91
2022-10-28T02:45:44.306Z,90.13
2022-10-28T02:48:21.176Z,90.01
2022-10-28T02:50:59.186Z,89.82
2022-10-28T02:53:37.302Z,89.96
2022-10-28T02:56:11.894Z,89.71
2022-10-28T02:58:45.495Z,89.54
2022-10-28T03:01:17.642Z,89.46
2022-10-28T03:03:49.418Z,89.40
2022-10-28T03:06:21.212Z,89.55
2022-10-28T03:08:52.977Z,89.39
2022-10-28T03:11:24.868Z,89.16
2022-10-28T03:13:56.518Z,88.76
2022-10-28T03:16:28.154Z,88.90
2022-10-28T03:18:59.969Z,89.00
2022-10-28T03:21:31.692Z,88.69
2022-10-28T03:24:03.505Z,88.80
2022-10-28T03:26:35.247Z,88.85
2022-10-28T03:29:07.549Z,88.87
2022-10-28T03:31:39.517Z,88.97
2022-10-28T03:34:11.256Z,88.98
2022-10-28T03:36:43.065Z,89.10
2022-10-28T03:39:14.736Z,89.02
2022-10-28T03:41:46.407Z,88.92
2022-10-28T03:44:18.485Z,89.18
2022-10-28T03:46:50.292Z,89.10
2022-10-28T03:49:21.946Z,89.04
2022-10-28T03:51:53.590Z,89.05
2022-10-28T03:54:25.296Z,88.93
2022-10-28T03:56:57.221Z,88.84
2022-10-28T03:59:29.071Z,88.99
2022-10-28T04:02:00.870Z,88.84
2022-10-28T04:04:32.674Z,89.15
2022-10-28T04:07:04.359Z,89.03
2022-10-28T04:09:36.003Z,88.89
2022-10-28T04:12:11.195Z,88.52
2022-10-28T04:14:42.906Z,88.52
2022-10-28T04:17:14.744Z,88.42
2022-10-28T04:19:46.384Z,88.39
2022-10-28T04:22:18.082Z,88.37
2022-10-28T04:24:50.091Z,88.19
2022-10-28T04:27:21.820Z,88.30
2022-10-28T04:29:53.499Z,88.22
2022-10-28T04:32:25.189Z,87.93
2022-10-28T04:34:56.966Z,88.19
2022-10-28T04:37:28.617Z,88.40
2022-10-28T04:40:00.304Z,88.41
2022-10-28T04:42:32.079Z,88.48
2022-10-28T04:45:03.874Z,88.69
2022-10-28T04:47:35.893Z,88.82
2022-10-28T04:50:09.020Z,88.66
2022-10-28T04:52:40.893Z,88.73
2022-10-28T04:55:12.870Z,88.88
2022-10-28T04:57:44.547Z,88.71
2022-10-28T05:00:17.244Z,88.92
2022-10-28T05:02:49.303Z,88.98
2022-10-28T05:05:23.488Z,88.86
2022-10-28T05:07:55.446Z,88.68
2022-10-28T05:10:27.612Z,88.56
2022-10-28T05:12:59.338Z,88.51
2022-10-28T05:15:31.483Z,88.63
2022-10-28T05:18:03.139Z,88.50
2022-10-28T05:20:35.422Z,88.50
2022-10-28T05:23:07.128Z,88.43
2022-10-28T05:25:38.800Z,88.31
2022-10-28T05:28:13.289Z,88.21
2022-10-28T05:30:45.113Z,88.32
2022-10-28T05:33:17.169Z,88.25
2022-10-28T05:35:48.801Z,88.40
2022-10-28T05:38:20.628Z,88.52
2022-10-28T05:40:52.544Z,88.66
2022-10-28T05:43:24.233Z,88.61
2022-10-28T05:45:59.143Z,88.54
2022-10-28T05:48:30.785Z,87.99
2022-10-28T05:51:02.428Z,87.98
2022-10-28T05:53:34.095Z,88.12
2022-10-28T05:56:06.055Z,88.21
2022-10-28T05:58:37.793Z,88.32
2022-10-28T06:01:10.554Z,88.23
2022-10-28T06:03:42.284Z,88.33
2022-10-28T06:06:13.990Z,88.70
2022-10-28T06:08:45.631Z,88.82
2022-10-28T06:11:16.721Z,88.78
2022-10-28T06:13:48.766Z,88.66
2022-10-28T06:16:20.430Z,88.48
2022-10-28T06:18:52.141Z,88.53
2022-10-28T06:21:24.839Z,88.15
2022-10-28T06:23:56.491Z,88.08
2022-10-28T06:26:28.248Z,88.09
2022-10-28T06:29:00.299Z,88.01
2022-10-28T06:31:32.263Z,87.29
2022-10-28T06:34:04.334Z,86.94
2022-10-28T06:36:36.141Z,86.64
2022-10-28T06:39:08.471Z,86.62
2022-10-28T06:41:40.155Z,86.44
2022-10-28T06:44:11.887Z,85.90
2022-10-28T06:46:45.250Z,85.60
2022-10-28T06:49:17.428Z,85.19
2022-10-28T06:51:50.111Z,85.00
2022-10-28T06:54:21.774Z,84.76
2022-10-28T06:56:53.504Z,84.68
2022-10-28T06:59:25.257Z,85.02
2022-10-28T07:01:57.215Z,85.04
2022-10-28T07:04:29.388Z,84.27
2022-10-28T07:07:01.707Z,84.31
2022-10-28T07:09:33.936Z,84.13
2022-10-28T07:12:05.894Z,83.56
2022-10-28T07:14:38.821Z,83.25
2022-10-28T07:17:10.518Z,82.95
2022-10-28T07:19:42.246Z,82.24
2022-10-28T07:22:14.041Z,81.95
2022-10-28T07:24:45.791Z,81.40
2022-10-28T07:27:17.479Z,80.66
2022-10-28T07:29:49.473Z,79.84
2022-10-28T07:32:21.194Z,79.55
2022-10-28T07:34:52.850Z,79.13
2022-10-28T07:37:24.614Z,79.01
2022-10-28T07:39:56.731Z,78.27
2022-10-28T07:42:28.624Z,78.02
2022-10-28T07:45:00.570Z,78.73
2022-10-28T07:47:32.663Z,78.02
2022-10-28T07:50:04.667Z,77.06
2022-10-28T07:52:38.517Z,77.40
2022-10-28T07:55:11.656Z,77.64
2022-10-28T07:57:43.420Z,77.23
2022-10-28T08:00:15.877Z,77.16
2022-10-28T08:02:47.556Z,76.97
2022-10-28T08:05:20.986Z,76.73
2022-10-28T08:07:53.299Z,76.80
2022-10-28T08:10:25.131Z,76.46
2022-10-28T08:12:59.591Z,76.20
2022-10-28T08:15:31.593Z,76.06
2022-10-28T08:18:03.864Z,75.73
2022-10-28T08:20:35.699Z,75.84
2022-10-28T08:23:07.555Z,75.50
2022-10-28T08:25:39.678Z,75.17
2022-10-28T08:28:11.504Z,75.47
2022-10-28T08:30:57.022Z,75.25
2022-10-28T08:33:35.381Z,74.99
2022-10-28T08:36:08.135Z,75.30
2022-10-28T08:38:45.153Z,75.45
2022-10-28T08:41:31.011Z,75.26
2022-10-28T08:44:29.729Z,74.66
2022-10-28T08:47:14.887Z,74.19
2022-10-28T08:49:50.561Z,74.07
2022-10-28T08:52:30.572Z,74.28
2022-10-28T08:55:06.723Z,74.53
2022-10-28T08:57:42.361Z,74.53
2022-10-28T09:00:24.042Z,74.06
2022-10-28T09:03:18.321Z,73.50
2022-10-28T09:05:54.994Z,73.16
2022-10-28T09:08:28.790Z,72.61
2022-10-28T09:11:50.023Z,72.25
2022-10-28T09:14:39.562Z,72.39
2022-10-28T09:17:18.668Z,72.03
2022-10-28T09:19:53.387Z,72.45
2022-10-28T09:22:30.129Z,70.02
2022-10-28T09:25:06.004Z,69.37
2022-10-28T09:27:53.585Z,69.75
2022-10-28T09:30:43.807Z,69.73
2022-10-28T09:33:37.006Z,69.22
2022-10-28T09:36:16.211Z,69.28
2022-10-28T09:38:48.970Z,68.85
2022-10-28T09:41:24.111Z,69.32
2022-10-28T09:44:00.492Z,68.61
2022-10-28T09:46:36.276Z,67.92
2022-10-28T09:49:17.734Z,68.26
2022-10-28T09:51:55.312Z,68.12
2022-10-28T09:54:33.576Z,67.50
2022-10-28T09:57:06.810Z,67.38
2022-10-28T10:27:20.514Z,65.44
2022-10-28T10:29:54.391Z,64.69
2022-10-28T10:32:30.978Z,63.71
2022-10-28T10:35:07.317Z,63.70
2022-10-28T10:37:46.495Z,64.45
2022-10-28T10:40:25.558Z,63.34
2022-10-28T10:43:13.062Z,63.36
2022-10-28T10:45:55.010Z,63.72
2022-10-28T10:48:27.404Z,63.51
2022-10-28T10:50:59.741Z,63.18
2022-10-28T10:53:33.824Z,62.91
2022-10-28T10:56:09.461Z,62.86
2022-10-28T10:58:51.813Z,62.30
2022-10-28T11:01:27.541Z,62.67
2022-10-28T11:04:02.803Z,62.53
2022-10-28T11:06:39.416Z,62.13
2022-10-28T11:09:23.229Z,62.12
2022-10-28T11:11:56.029Z,61.78
2022-10-28T11:14:31.472Z,61.73
2022-10-28T11:17:05.064Z,61.75
2022-10-28T11:19:38.827Z,61.21
2022-10-28T11:22:22.294Z,60.53
2022-10-28T11:25:25.061Z,60.57
2022-10-28T11:28:15.176Z,60.37
2022-10-28T11:30:57.950Z,60.00
2022-10-28T11:33:36.040Z,59.77
2022-10-28T11:36:18.051Z,60.46
2022-10-28T11:39:07.713Z,60.43
2022-10-28T11:41:51.996Z,59.57
2022-10-28T11:44:34.375Z,58.25
2022-10-28T11:47:20.320Z,58.43
2022-10-28T11:50:14.609Z,58.89
2022-10-28T11:53:05.322Z,59.04
2022-10-28T11:55:44.564Z,58.98
2022-10-28T11:58:27.537Z,57.83
2022-10-28T12:01:15.664Z,57.00
2022-10-28T12:04:02.016Z,56.04
2022-10-28T12:06:50.559Z,55.87
2022-10-28T12:09:34.295Z,55.69
2022-10-28T12:12:17.572Z,56.36
2022-10-28T12:14:59.965Z,56.18
2022-10-28T12:17:40.927Z,56.63
2022-10-28T12:20:23.420Z,56.74
2022-10-28T12:22:59.135Z,56.71
2022-10-28T12:25:35.313Z,56.60
2022-10-28T12:30:53.070Z,57.28
2022-10-28T12:33:29.438Z,57.73
2022-10-28T12:36:19.349Z,57.46
2022-10-28T12:38:58.419Z,57.20
2022-10-28T12:41:44.044Z,57.63
2022-10-28T12:44:20.575Z,57.74
2022-10-28T12:47:03.055Z,58.02
2022-10-28T12:49:46.526Z,58.39
2022-10-28T12:52:28.903Z,58.58
2022-10-28T12:55:08.657Z,59.04
2022-10-28T12:57:44.111Z,59.58
2022-10-28T13:00:23.035Z,59.74
2022-10-28T13:03:01.819Z,59.47
2022-10-28T13:05:39.608Z,59.91
2022-10-28T13:08:33.163Z,60.25
2022-10-28T13:11:30.131Z,60.51
2022-10-28T13:14:13.533Z,60.87
2022-10-28T13:17:07.733Z,61.28
2022-10-28T13:19:51.849Z,61.43
2022-10-28T13:22:45.901Z,62.04
2022-10-28T13:25:33.449Z,62.43
2022-10-28T13:28:05.774Z,62.68
2022-10-28T13:30:37.635Z,63.00
2022-10-28T13:33:17.711Z,63.30
2022-10-28T13:35:51.392Z,63.73
2022-10-28T13:38:26.064Z,63.91
2022-10-28T13:41:30.149Z,64.27
2022-10-28T13:44:29.472Z,64.60
2022-10-28T13:47:29.094Z,64.85
2022-10-28T13:50:37.726Z,65.04
2022-10-28T13:53:46.323Z,65.42
2022-10-28T13:56:29.242Z,65.40
2022-10-28T13:59:05.348Z,65.55
2022-10-28T14:02:07.970Z,66.06
2022-10-28T14:04:55.109Z,66.15
2022-10-28T14:07:30.360Z,66.14
2022-10-28T14:10:21.031Z,66.41
2022-10-28T14:12:57.135Z,66.55
2022-10-28T14:15:34.023Z,66.75
2022-10-28T14:21:13.083Z,67.51
2022-10-28T14:24:13.276Z,67.68
2022-10-28T14:27:31.001Z,67.59
2022-10-28T14:30:25.077Z,68.14
2022-10-28T14:33:30.123Z,68.17
2022-10-28T14:36:26.677Z,68.39
2022-10-28T14:39:33.428Z,68.73
2022-10-28T14:42:30.406Z,69.10
2022-10-28T14:45:17.296Z,69.18
2022-10-28T14:48:11.234Z,69.63
2022-10-28T14:50:48.088Z,69.74
2022-10-28T14:53:26.641Z,70.10
2022-10-28T14:56:04.393Z,70.23
2022-10-28T14:58:41.989Z,70.71
2022-10-28T15:01:28.063Z,70.79
2022-10-28T15:04:05.171Z,71.32
2022-10-28T15:06:41.416Z,71.59
2022-10-28T15:09:23.428Z,71.87
2022-10-28T15:11:59.198Z,71.84
2022-10-28T15:14:34.830Z,72.17
2022-10-28T15:17:16.219Z,72.53
2022-10-28T15:19:49.768Z,73.05
2022-10-28T15:22:25.071Z,73.39
2022-10-28T15:25:02.119Z,73.67
2022-10-28T15:27:35.687Z,74.25
2022-10-28T15:30:18.022Z,74.62
2022-10-28T15:32:50.588Z,74.90
2022-10-28T15:35:39.477Z,75.30
2022-10-28T15:38:39.318Z,75.52
2022-10-28T15:41:44.148Z,75.73
2022-10-28T15:44:31.577Z,76.10
2022-10-28T15:47:15.962Z,76.16
2022-10-28T15:50:01.566Z,76.27
2022-10-28T15:52:39.006Z,76.37
2022-10-28T15:55:41.350Z,76.81
2022-10-28T15:58:38.048Z,76.96
2022-10-28T16:01:28.663Z,77.51
2022-10-28T16:04:00.762Z,77.84
2022-10-28T16:06:34.818Z,77.82
2022-10-28T16:09:20.152Z,78.02
2022-10-28T16:11:56.577Z,78.03
2022-10-28T16:14:37.268Z,78.21
2022-10-28T16:17:16.770Z,78.41
2022-10-28T16:19:54.317Z,78.39
2022-10-28T16:22:28.897Z,78.50
2022-10-28T16:25:00.705Z,78.59
2022-10-28T16:27:33.799Z,78.75
2022-10-28T16:30:08.971Z,79.03
2022-10-28T16:32:43.612Z,79.35
2022-10-28T16:35:18.799Z,79.44
2022-10-28T16:37:55.475Z,79.65
2022-10-28T16:40:50.519Z,79.87
2022-10-28T16:43:20.895Z,80.21
2022-10-28T16:45:54.688Z,80.18
2022-10-28T16:48:30.515Z,80.29
2022-10-28T16:51:05.440Z,80.50
2022-10-28T16:53:38.959Z,80.37
2022-10-28T16:56:13.678Z,80.65
2022-10-28T16:58:47.078Z,80.74
2022-10-28T17:01:22.937Z,80.95
2022-10-28T17:03:54.886Z,80.89
2022-10-28T17:06:27.134Z,80.86
2022-10-28T17:09:03.555Z,80.95
2022-10-28T17:11:35.958Z,81.15
2022-10-28T17:14:08.347Z,81.24
2022-10-28T17:16:43.258Z,81.26
2022-10-28T17:19:15.477Z,81.36
2022-10-28T17:21:48.221Z,81.45
2022-10-28T17:24:20.779Z,81.66
2022-10-28T17:26:54.206Z,81.76
2022-10-28T17:29:26.657Z,81.89
2022-10-28T17:31:59.191Z,82.07
2022-10-28T17:34:31.365Z,82.07
2022-10-28T17:37:03.105Z,82.15
2022-10-28T17:39:35.055Z,82.11
2022-10-28T17:42:07.009Z,82.51
2022-10-28T17:44:38.970Z,82.72
2022-10-28T17:47:12.254Z,82.67
2022-10-28T17:49:43.943Z,82.73
2022-10-28T17:52:15.896Z,82.84
2022-10-28T17:54:47.683Z,82.89
2022-10-28T17:57:19.646Z,83.03
2022-10-28T17:59:51.328Z,82.91
2022-10-28T18:02:23.147Z,82.90
2022-10-28T18:04:55.015Z,83.02
2022-10-28T18:07:27.481Z,83.03
2022-10-28T18:09:59.147Z,82.94
2022-10-28T18:12:30.882Z,83.42
2022-10-28T18:15:02.856Z,83.13
2022-10-28T18:17:34.566Z,83.38
2022-10-28T18:20:07.359Z,83.44
2022-10-28T18:22:39.178Z,83.36
2022-10-28T18:25:11.703Z,83.88
2022-10-28T18:27:43.469Z,83.87
2022-10-28T18:30:15.525Z,83.69
2022-10-28T18:32:47.189Z,83.90
2022-10-28T18:35:19.004Z,83.87
2022-10-28T18:37:50.861Z,83.88
2022-10-28T18:40:22.516Z,83.65
2022-10-28T18:42:54.179Z,84.16
2022-10-28T18:45:25.816Z,83.95
2022-10-28T18:47:58.638Z,84.05
2022-10-28T18:50:31.984Z,84.11
2022-10-28T18:53:04.050Z,84.12
2022-10-28T18:55:35.799Z,84.15
2022-10-28T18:58:09.975Z,84.13
2022-10-28T19:00:42.123Z,84.03
2022-10-28T19:03:20.981Z,84.35
2022-10-28T19:05:52.643Z,84.15
2022-10-28T19:08:24.355Z,84.23
2022-10-28T19:10:59.308Z,84.18
2022-10-28T19:13:33.188Z,84.26
2022-10-28T19:16:05.098Z,84.18
2022-10-28T19:18:38.389Z,84.05
2022-10-28T19:21:13.886Z,84.17
2022-10-28T19:23:46.293Z,84.29
2022-10-28T19:26:18.422Z,84.18
2022-10-28T19:28:51.598Z,84.14
2022-10-28T19:31:26.119Z,84.14
2022-10-28T19:33:58.005Z,84.22
2022-10-28T19:36:31.363Z,84.27
2022-10-28T19:39:03.877Z,84.40
2022-10-28T19:41:35.606Z,84.46
2022-10-28T19:44:07.506Z,84.71
2022-10-28T19:46:39.542Z,84.58
2022-10-28T19:49:11.551Z,84.61
2022-10-28T19:51:43.630Z,84.59
2022-10-28T19:54:16.122Z,84.57
2022-10-28T19:56:49.183Z,84.52
2022-10-28T19:59:21.211Z,84.53
2022-10-28T20:01:52.993Z,84.53
2022-10-28T20:04:25.231Z,84.70
2022-10-28T20:06:57.706Z,84.76
2022-10-28T20:09:29.481Z,84.95
2022-10-28T20:12:01.967Z,85.13
2022-10-28T20:14:33.734Z,85.28
2022-10-28T20:17:06.859Z,85.18
2022-10-28T20:19:38.651Z,85.31
2022-10-28T20:22:10.449Z,85.23
2022-10-28T20:24:42.141Z,85.25
2022-10-28T20:27:13.813Z,85.28
2022-10-28T20:29:45.482Z,85.36
2022-10-28T20:32:17.195Z,85.43
2022-10-28T20:34:48.879Z,85.58
2022-10-28T20:37:20.615Z,85.60
2022-10-28T20:39:54.975Z,85.63
2022-10-28T20:42:29.397Z,85.69
2022-10-28T20:45:01.099Z,85.84
2022-10-28T20:47:32.781Z,85.92
2022-10-28T20:52:52.716Z,85.80
2022-10-28T20:55:24.654Z,85.73
2022-10-28T20:57:56.341Z,85.82
2022-10-28T21:00:28.109Z,86.00
2022-10-28T21:03:01.064Z,85.74
2022-10-28T21:05:34.692Z,85.66
2022-10-28T21:08:06.758Z,85.59
2022-10-28T21:10:39.539Z,85.62
2022-10-28T21:13:11.305Z,85.72
2022-10-28T21:15:45.287Z,85.97
2022-10-28T21:18:17.291Z,86.13
2022-10-28T21:20:48.956Z,86.17
2022-10-28T21:23:21.041Z,85.98
2022-10-28T21:25:56.618Z,86.02
2022-10-28T21:28:30.213Z,85.96
2022-10-28T21:31:06.860Z,85.77
2022-10-28T21:33:39.845Z,85.77
2022-10-28T21:36:14.738Z,85.61
2022-10-28T21:38:47.102Z,85.45
2022-10-28T21:41:21.623Z,85.43
2022-10-28T21:43:54.743Z,85.26
2022-10-28T21:46:26.944Z,85.16
2022-10-28T21:48:58.676Z,85.22
2022-10-28T21:51:30.583Z,85.28
2022-10-28T21:54:02.551Z,85.29
2022-10-28T21:56:34.178Z,85.24
2022-10-28T21:59:06.024Z,85.18
2022-10-28T22:01:37.850Z,85.16
2022-10-28T22:04:10.105Z,85.09
2022-10-28T22:06:41.905Z,85.13
2022-10-28T22:09:13.575Z,85.05
2022-10-28T22:11:45.344Z,85.22
2022-10-28T22:14:17.580Z,85.31
2022-10-28T22:16:49.261Z,85.30
2022-10-28T22:19:20.935Z,85.30
2022-10-28T22:21:52.698Z,85.47
2022-10-28T22:24:24.400Z,85.45
2022-10-28T22:26:56.265Z,85.58
2022-10-28T22:29:28.123Z,85.74
2022-10-28T22:31:59.989Z,85.96
2022-10-28T22:34:31.935Z,85.99
2022-10-28T22:37:03.650Z,86.04
2022-10-28T22:39:35.462Z,86.10
2022-10-28T22:42:07.581Z,86.12
2022-10-28T22:44:39.513Z,86.36
2022-10-28T22:47:11.238Z,86.25
2022-10-28T22:49:42.887Z,86.27
2022-10-28T22:52:14.830Z,86.12
2022-10-28T22:54:46.536Z,86.09
2022-10-28T22:57:18.312Z,85.94
2022-10-28T22:59:50.508Z,86.02
2022-10-28T23:02:23.791Z,85.98
2022-10-28T23:04:55.557Z,86.07
2022-10-28T23:07:27.275Z,86.21
2022-10-28T23:10:00.602Z,86.59
2022-10-28T23:12:32.460Z,86.42
2022-10-28T23:15:04.754Z,86.50
2022-10-28T23:17:36.500Z,86.40
2022-10-28T23:20:09.143Z,86.56
2022-10-28T23:22:40.805Z,86.70
2022-10-28T23:25:13.116Z,86.68
2022-10-28T23:27:45.790Z,86.77
2022-10-28T23:30:17.880Z,86.67
2022-10-28T23:32:49.714Z,86.86
2022-10-28T23:35:21.366Z,86.81
2022-10-28T23:37:53.357Z,86.77
2022-10-28T23:40:25.211Z,86.96
2022-10-28T23:42:57.517Z,86.99
2022-10-28T23:45:30.486Z,87.01
2022-10-28T23:48:02.135Z,86.90
2022-10-28T23:50:33.790Z,86.74
2022-10-28T23:53:05.448Z,86.82
2022-10-28T23:55:38.269Z,86.79
2022-10-28T23:58:10.002Z,86.82
